Time;durP1;ratioP1;P1;durP2;ratioP2;P2;SDS_P1;SDS_P2;PMS_P1;PMS_P2;Temp;Humidity;BMP_temperature;BMP_pressure;BME280_temperature;BME280_humidity;BME280_pressure;Samples;Min_cycle;Max_cycle;Signal;HPM_P1;HPM_P2
2020/12/04 00:01:38;;;;;;;39.45;17.80;;;;;;;-0.02;68.58;93778.19;5068157;28;20465;-70
2020/12/04 00:04:04;;;;;;;37.75;18.85;;;;;;;-0.08;68.43;93794.91;5069405;28;20111;-69
2020/12/04 00:06:29;;;;;;;42.83;18.08;;;;;;;-0.05;68.05;93782.09;5069534;28;20020;-70
2020/12/04 00:08:55;;;;;;;36.95;17.15;;;;;;;-0.03;68.32;93771.38;5067705;28;20497;-70
2020/12/04 00:11:21;;;;;;;34.63;15.95;;;;;;;0.00;67.99;93784.00;5069366;28;20028;-69
2020/12/04 00:13:46;;;;;;;32.03;15.43;;;;;;;-0.04;67.45;93767.97;5067975;28;20028;-69
2020/12/04 00:16:12;;;;;;;36.88;15.13;;;;;;;-0.04;68.05;93777.66;5069237;28;20020;-70
2020/12/04 00:18:37;;;;;;;37.92;16.08;;;;;;;0.01;67.14;93785.56;5069341;28;20025;-70
2020/12/04 00:21:03;;;;;;;31.33;15.48;;;;;;;-0.02;67.52;93791.28;5069314;28;20376;-70
2020/12/04 00:23:28;;;;;;;31.65;14.13;;;;;;;-0.03;67.63;93780.03;5069257;28;20114;-70
2020/12/04 00:25:54;;;;;;;30.17;14.82;;;;;;;-0.04;68.16;93780.25;5069208;28;20104;-70
2020/12/04 00:28:19;;;;;;;29.77;13.55;;;;;;;-0.07;68.75;93788.63;5067918;28;20556;-70
2020/12/04 00:30:44;;;;;;;23.10;10.35;;;;;;;-0.08;68.83;93784.41;5067975;28;20538;-70
2020/12/04 00:33:10;;;;;;;28.55;12.30;;;;;;;-0.13;69.24;93782.56;5067757;28;20060;-70
2020/12/04 00:35:35;;;;;;;24.92;11.55;;;;;;;-0.19;69.42;93780.13;5069085;28;20099;-70
2020/12/04 00:38:01;;;;;;;24.92;11.13;;;;;;;-0.12;68.11;93780.72;5069399;28;20032;-70
2020/12/04 00:40:27;;;;;;;23.95;11.80;;;;;;;-0.14;69.19;93788.03;5069520;28;20480;-70
2020/12/04 00:42:52;;;;;;;28.33;10.95;;;;;;;-0.20;70.04;93779.34;5071113;28;20077;-70
2020/12/04 00:45:18;;;;;;;26.60;11.80;;;;;;;-0.26;69.98;93786.38;5071394;28;20388;-71
2020/12/04 00:47:43;;;;;;;27.40;11.40;;;;;;;-0.30;70.16;93776.63;5072738;28;20020;-69
2020/12/04 00:50:09;;;;;;;20.42;10.65;;;;;;;-0.25;70.03;93779.28;5072310;28;20113;-70
2020/12/04 00:52:34;;;;;;;24.70;10.48;;;;;;;-0.22;70.25;93776.97;5070963;28;20041;-69
2020/12/04 00:55:00;;;;;;;24.13;11.32;;;;;;;-0.19;70.19;93793.25;5071154;28;20060;-70
2020/12/04 00:57:26;;;;;;;22.83;11.05;;;;;;;-0.13;69.02;93773.91;5072340;28;20021;-70
2020/12/04 00:59:51;;;;;;;23.67;11.15;;;;;;;-0.16;70.17;93769.97;5072516;28;20026;-70
2020/12/04 01:02:16;;;;;;;26.13;10.13;;;;;;;-0.09;69.98;93764.50;5072324;28;20142;-70
2020/12/04 01:04:42;;;;;;;19.48;9.15;;;;;;;-0.05;69.52;93755.13;5072219;28;20078;-70
2020/12/04 01:07:08;;;;;;;23.13;9.90;;;;;;;-0.02;68.81;93755.41;5070961;28;20024;-70
2020/12/04 01:09:34;;;;;;;24.80;10.30;;;;;;;0.01;68.44;93754.13;5071966;28;20081;-70
2020/12/04 01:12:00;;;;;;;26.63;10.90;;;;;;;-0.08;69.38;93751.16;5072236;28;20115;-70
2020/12/04 01:14:27;;;;;;;21.45;9.50;;;;;;;-0.14;69.66;93741.69;5070533;28;20576;-70
2020/12/04 01:16:52;;;;;;;24.33;11.20;;;;;;;-0.17;69.07;93757.09;5070902;28;20056;-70
2020/12/04 01:19:18;;;;;;;22.83;9.77;;;;;;;-0.19;69.47;93746.88;5072308;28;20067;-71
2020/12/04 01:21:47;;;;;;;23.92;10.43;;;;;;;-0.19;69.97;93743.47;5071812;28;20036;-70
2020/12/04 01:24:12;;;;;;;22.15;9.90;;;;;;;-0.21;69.67;93739.25;5070676;28;20040;-70
2020/12/04 01:26:39;;;;;;;26.83;10.43;;;;;;;-0.24;69.80;93736.34;5070514;28;20036;-71
2020/12/04 01:29:04;;;;;;;21.33;10.00;;;;;;;-0.17;69.93;93731.69;5071823;28;20070;-70
2020/12/04 01:31:31;;;;;;;21.45;9.90;;;;;;;-0.15;69.36;93723.59;5072001;28;20060;-70
2020/12/04 01:34:00;;;;;;;22.75;9.63;;;;;;;-0.11;70.06;93708.94;5071815;28;20051;-71
2020/12/04 01:36:31;;;;;;;22.35;10.48;;;;;;;-0.09;69.38;93706.88;5070386;28;20090;-70
2020/12/04 01:38:58;;;;;;;19.75;9.77;;;;;;;-0.10;68.74;93710.53;5071993;28;20028;-71
2020/12/04 01:41:23;;;;;;;17.77;9.20;;;;;;;-0.18;69.79;93721.44;5070211;28;20032;-71
2020/12/04 01:43:49;;;;;;;23.10;9.80;;;;;;;-0.24;70.09;93715.41;5070382;28;20024;-71
2020/12/04 01:46:14;;;;;;;19.95;9.63;;;;;;;-0.24;70.29;93708.31;5070148;28;20028;-71
2020/12/04 01:48:43;;;;;;;20.13;9.45;;;;;;;-0.17;70.46;93699.47;5070176;28;20120;-72
2020/12/04 01:51:09;;;;;;;21.38;9.57;;;;;;;-0.15;70.12;93702.63;5069712;28;20047;-71
2020/12/04 01:53:35;;;;;;;17.90;8.27;;;;;;;-0.17;70.38;93694.22;5069242;28;20467;-71
2020/12/04 01:56:01;;;;;;;17.75;8.13;;;;;;;-0.11;70.54;93680.13;5069857;28;20136;-71
2020/12/04 01:58:27;;;;;;;15.43;7.72;;;;;;;-0.07;70.95;93673.34;5071379;28;20107;-71
2020/12/04 02:00:52;;;;;;;18.20;7.95;;;;;;;-0.05;70.88;93673.88;5071199;28;20048;-70
2020/12/04 02:03:18;;;;;;;19.70;8.45;;;;;;;0.02;70.11;93671.03;5070973;28;20458;-71
2020/12/04 02:05:53;;;;;;;21.42;8.18;;;;;;;0.05;70.30;93696.75;5071054;28;20052;-71
2020/12/04 02:08:47;;;;;;;17.23;8.07;;;;;;;0.08;70.53;93681.34;5055179;28;20040;-71
2020/12/04 02:11:18;;;;;;;21.73;8.88;;;;;;;0.11;70.31;93682.66;5051149;28;20057;-71
2020/12/04 02:13:47;;;;;;;19.17;7.82;;;;;;;0.13;70.06;93660.38;5059074;28;20028;-71
2020/12/04 02:16:16;;;;;;;13.75;5.97;;;;;;;0.18;69.99;93673.53;5070963;28;20035;-71
2020/12/04 02:18:41;;;;;;;12.80;6.43;;;;;;;0.21;70.67;93663.59;5069417;28;20090;-71
2020/12/04 02:21:07;;;;;;;10.43;5.38;;;;;;;0.30;71.19;93656.81;5063347;28;20025;-71
2020/12/04 02:23:32;;;;;;;9.30;5.13;;;;;;;0.38;71.61;93653.72;5050826;28;20079;-69
2020/12/04 02:25:59;;;;;;;10.70;5.55;;;;;;;0.47;71.18;93656.63;5050863;28;20399;-70
2020/12/04 02:28:33;;;;;;;9.10;5.07;;;;;;;0.56;71.50;93674.25;5050765;28;20025;-70
2020/12/04 02:30:58;;;;;;;9.90;4.78;;;;;;;0.63;71.38;93674.03;5049570;28;20097;-70
2020/12/04 02:33:24;;;;;;;10.00;5.47;;;;;;;0.73;70.98;93670.66;5050936;28;20103;-70
2020/12/04 02:35:49;;;;;;;11.00;5.18;;;;;;;0.78;70.38;93668.84;5061664;28;20040;-70
2020/12/04 02:38:14;;;;;;;10.32;5.50;;;;;;;0.88;70.19;93667.31;5070829;28;20028;-70
2020/12/04 02:40:40;;;;;;;8.00;4.70;;;;;;;0.93;69.87;93660.25;5069101;28;20081;-70
2020/12/04 02:43:05;;;;;;;10.13;5.05;;;;;;;0.99;69.71;93661.84;5070369;28;20066;-70
2020/12/04 02:45:31;;;;;;;10.52;5.50;;;;;;;1.07;69.75;93667.66;5070504;28;20457;-70
2020/12/04 02:47:56;;;;;;;9.18;5.00;;;;;;;1.08;69.42;93654.28;5069146;28;20028;-70
2020/12/04 02:50:21;;;;;;;13.60;5.20;;;;;;;1.13;69.70;93642.97;5070438;28;20036;-70
2020/12/04 02:52:47;;;;;;;10.43;5.38;;;;;;;1.13;69.65;93654.28;5068814;28;20067;-70
2020/12/04 02:55:12;;;;;;;10.82;4.82;;;;;;;1.20;69.39;93657.44;5070198;28;20027;-67
2020/12/04 02:57:38;;;;;;;10.63;5.25;;;;;;;1.20;69.42;93648.75;5068881;28;20381;-70
2020/12/04 03:00:04;;;;;;;12.80;6.38;;;;;;;1.23;68.20;93655.34;5070078;28;20028;-70
2020/12/04 03:02:29;;;;;;;10.35;5.75;;;;;;;1.24;67.89;93655.06;5070366;28;20028;-70
2020/12/04 03:04:55;;;;;;;11.02;5.13;;;;;;;1.18;68.08;93648.22;5068621;28;20427;-70
2020/12/04 03:07:20;;;;;;;11.10;6.30;;;;;;;1.08;68.36;93649.03;5069129;28;20029;-70
2020/12/04 03:09:46;;;;;;;10.52;4.75;;;;;;;1.05;69.07;93652.16;5068872;28;20028;-70
2020/12/04 03:12:11;;;;;;;12.55;5.88;;;;;;;1.07;69.01;93649.28;5069840;28;20028;-71
2020/12/04 03:14:37;;;;;;;12.65;5.57;;;;;;;1.09;69.12;93658.47;5070000;28;20501;-70
2020/12/04 03:17:02;;;;;;;12.40;5.93;;;;;;;1.08;68.75;93656.91;5068598;28;20029;-70
2020/12/04 03:19:28;;;;;;;12.88;5.88;;;;;;;0.86;69.09;93666.78;5069949;28;20029;-70
2020/12/04 03:21:53;;;;;;;13.02;6.55;;;;;;;0.82;69.57;93658.66;5070092;28;20036;-70
2020/12/04 03:24:19;;;;;;;12.95;6.28;;;;;;;0.87;68.93;93650.00;5069869;28;20483;-71
2020/12/04 03:26:45;;;;;;;11.23;5.90;;;;;;;0.89;69.37;93658.41;5069775;28;20031;-70
2020/12/04 03:29:10;;;;;;;10.07;6.15;;;;;;;0.84;69.17;93661.78;5069812;28;20064;-70
2020/12/04 03:31:35;;;;;;;13.32;6.28;;;;;;;0.75;69.44;93664.13;5069950;28;20537;-70
2020/12/04 03:34:01;;;;;;;13.98;6.68;;;;;;;0.71;69.29;93660.44;5069667;28;20024;-71
2020/12/04 03:36:26;;;;;;;12.77;6.10;;;;;;;0.63;69.65;93662.75;5069830;28;20035;-71
2020/12/04 03:38:52;;;;;;;14.38;6.63;;;;;;;0.55;69.98;93649.09;5069953;28;20480;-70
2020/12/04 03:41:17;;;;;;;14.02;6.95;;;;;;;0.62;69.20;93676.91;5069717;28;20020;-70
2020/12/04 03:43:43;;;;;;;13.73;6.70;;;;;;;0.55;70.01;93677.94;5069660;28;20032;-70
2020/12/04 03:46:10;;;;;;;13.50;6.88;;;;;;;0.48;69.81;93672.13;5069658;28;20025;-70
2020/12/04 03:48:36;;;;;;;11.40;6.03;;;;;;;0.43;70.34;93668.66;5070070;28;20129;-70
2020/12/04 03:51:02;;;;;;;17.17;7.45;;;;;;;0.45;69.17;93672.63;5069549;28;20472;-71
2020/12/04 03:53:27;;;;;;;13.27;6.88;;;;;;;0.46;69.80;93663.72;5069648;28;20043;-71
2020/12/04 03:55:53;;;;;;;17.20;7.53;;;;;;;0.37;69.78;93673.13;5069578;28;20033;-70
2020/12/04 03:58:18;;;;;;;12.70;6.68;;;;;;;0.34;70.75;93681.47;5069458;28;20043;-70
2020/12/04 04:00:44;;;;;;;10.55;5.88;;;;;;;0.29;70.84;93666.50;5069553;28;20098;-70
2020/12/04 04:03:09;;;;;;;15.02;6.32;;;;;;;0.28;71.15;93677.25;5069682;28;20082;-70
2020/12/04 04:05:35;;;;;;;11.05;5.80;;;;;;;0.36;71.19;93682.00;5069473;28;20090;-70
2020/12/04 04:08:00;;;;;;;13.95;6.82;;;;;;;0.33;71.67;93677.28;5069393;28;20074;-70
2020/12/04 04:10:26;;;;;;;11.43;6.18;;;;;;;0.39;71.95;93676.28;5068055;28;20106;-71
2020/12/04 04:12:51;;;;;;;11.65;6.25;;;;;;;0.44;71.60;93670.25;5069504;28;20028;-70
2020/12/04 04:15:16;;;;;;;11.15;5.65;;;;;;;0.54;71.39;93672.94;5068255;28;20469;-70
2020/12/04 04:17:42;;;;;;;11.85;5.60;;;;;;;0.54;71.31;93671.09;5073101;28;20090;-70
2020/12/04 04:20:07;;;;;;;11.38;5.65;;;;;;;0.58;71.45;93668.75;5073081;28;20024;-70
2020/12/04 04:22:33;;;;;;;10.50;5.95;;;;;;;0.64;70.94;93656.47;5073005;28;20056;-70
2020/12/04 04:24:58;;;;;;;11.80;6.93;;;;;;;0.68;70.70;93649.66;5073188;28;20043;-70
2020/12/04 04:27:24;;;;;;;15.93;7.78;;;;;;;0.71;70.50;93655.19;5072951;28;20020;-70
2020/12/04 04:29:50;;;;;;;18.88;9.00;;;;;;;0.74;70.50;93654.66;5072884;28;20111;-70
2020/12/04 04:32:15;;;;;;;16.45;8.07;;;;;;;0.74;69.88;93661.75;5071597;28;20081;-70
2020/12/04 04:34:41;;;;;;;27.33;13.25;;;;;;;0.79;70.06;93656.53;5072607;28;20464;-69
2020/12/04 04:37:06;;;;;;;41.20;18.33;;;;;;;0.85;69.56;93657.34;5071512;28;20476;-69
2020/12/04 04:39:31;;;;;;;24.70;11.75;;;;;;;0.87;68.56;93650.00;5071492;28;20047;-70
2020/12/04 04:41:58;;;;;;;17.30;8.93;;;;;;;0.87;68.65;93650.00;5072674;28;20028;-69
2020/12/04 04:44:23;;;;;;;16.42;8.18;;;;;;;0.86;68.91;93657.09;5072766;28;20028;-69
2020/12/04 04:47:12;;;;;;;13.68;6.80;;;;;;;0.77;69.45;93650.75;5071289;28;20028;-69
2020/12/04 04:49:45;;;;;;;12.13;6.38;;;;;;;0.81;69.83;93638.69;5072529;28;20035;-70
2020/12/04 04:52:11;;;;;;;15.07;6.07;;;;;;;0.84;70.07;93640.03;5072380;28;20500;-70
2020/12/04 04:54:43;;;;;;;8.75;4.82;;;;;;;0.92;70.60;93642.16;5072338;28;20032;-70
2020/12/04 04:57:10;;;;;;;8.43;4.30;;;;;;;0.96;71.39;93638.75;5072608;28;20033;-69
2020/12/04 04:59:35;;;;;;;9.55;4.63;;;;;;;1.07;71.16;93630.91;5070960;28;20435;-70
2020/12/04 05:02:01;;;;;;;8.52;4.78;;;;;;;1.15;71.30;93639.03;5072305;28;20029;-68
2020/12/04 05:04:27;;;;;;;14.13;5.32;;;;;;;1.18;71.24;93633.28;5071008;28;20198;-68
2020/12/04 05:06:52;;;;;;;11.07;4.35;;;;;;;1.27;70.94;93630.94;5072107;28;20024;-69
2020/12/04 05:09:25;;;;;;;8.38;4.47;;;;;;;1.35;70.61;93638.28;5072331;28;20551;-68
2020/12/04 05:12:03;;;;;;;9.23;4.50;;;;;;;1.38;70.63;93629.91;5070837;28;20060;-69
2020/12/04 05:14:28;;;;;;;9.93;4.43;;;;;;;1.45;70.25;93626.25;5072019;28;20120;-68
2020/12/04 05:16:58;;;;;;;8.20;4.30;;;;;;;1.45;70.71;93631.50;5070603;28;20107;-69
2020/12/04 05:19:38;;;;;;;9.18;4.55;;;;;;;1.47;70.71;93642.53;5070759;28;20030;-68
2020/12/04 05:22:17;;;;;;;9.93;5.20;;;;;;;1.52;70.48;93639.88;5071799;28;20035;-68
2020/12/04 05:24:45;;;;;;;9.75;4.93;;;;;;;1.49;70.58;93635.19;5070607;28;20029;-68
2020/12/04 05:27:30;;;;;;;9.95;5.68;;;;;;;1.56;70.24;93633.84;5069223;28;20568;-69
2020/12/04 05:29:59;;;;;;;10.63;5.45;;;;;;;1.60;70.31;93636.75;5071717;28;20047;-68
2020/12/04 05:32:27;;;;;;;10.65;5.35;;;;;;;1.67;69.97;93636.47;5070497;28;20016;-69
2020/12/04 05:35:09;;;;;;;14.23;5.57;;;;;;;1.71;69.48;93643.59;5071842;28;20166;-68
2020/12/04 05:37:35;;;;;;;10.20;5.43;;;;;;;1.70;69.41;93634.13;5071587;28;20020;-69
2020/12/04 05:40:00;;;;;;;10.43;5.20;;;;;;;1.72;69.41;93637.28;5071717;28;20024;-69
2020/12/04 05:42:29;;;;;;;10.05;5.15;;;;;;;1.76;68.90;93635.69;5071474;28;20031;-69
2020/12/04 05:44:55;;;;;;;12.52;4.78;;;;;;;1.82;68.85;93630.44;5071457;28;20017;-69
2020/12/04 05:47:21;;;;;;;17.08;8.35;;;;;;;1.87;68.33;93638.31;5070258;28;20032;-68
2020/12/04 05:49:47;;;;;;;19.17;9.13;;;;;;;1.91;67.79;93647.25;5071478;28;20028;-68
2020/12/04 05:52:14;;;;;;;17.08;8.07;;;;;;;1.93;68.84;93639.88;5071648;28;20189;-68
2020/12/04 05:54:42;;;;;;;15.93;7.75;;;;;;;1.94;68.83;93636.22;5070991;28;20029;-71
2020/12/04 05:57:08;;;;;;;14.10;7.35;;;;;;;1.96;68.80;93634.91;5071330;28;20392;-70
2020/12/04 05:59:34;;;;;;;14.80;7.78;;;;;;;1.99;68.94;93642.28;5071518;28;20087;-70
2020/12/04 06:01:59;;;;;;;13.65;6.90;;;;;;;2.03;68.89;93634.63;5070156;28;20085;-70
2020/12/04 06:04:26;;;;;;;16.23;7.43;;;;;;;2.10;68.57;93635.16;5065079;28;20028;-70
2020/12/04 06:06:52;;;;;;;12.73;5.85;;;;;;;2.12;68.87;93635.69;5051111;28;20028;-70
2020/12/04 06:09:21;;;;;;;10.32;5.25;;;;;;;2.19;69.19;93638.81;5067532;28;20047;-70
2020/12/04 06:11:47;;;;;;;9.60;4.72;;;;;;;2.29;68.80;93638.00;5069458;28;20047;-71
2020/12/04 06:14:17;;;;;;;11.88;5.82;;;;;;;2.33;69.26;93641.69;5070815;28;20024;-71
2020/12/04 06:16:43;;;;;;;12.30;6.18;;;;;;;2.42;68.77;93639.28;5070668;28;20031;-71
2020/12/04 06:19:29;;;;;;;11.07;5.75;;;;;;;2.49;68.72;93646.91;5069813;28;20543;-71
2020/12/04 06:22:16;;;;;;;12.43;5.97;;;;;;;2.54;68.68;93660.03;5070697;28;20488;-69
2020/12/04 06:24:48;;;;;;;11.93;6.40;;;;;;;2.58;68.59;93650.56;5062222;28;20491;-69
2020/12/04 06:27:44;;;;;;;12.90;5.38;;;;;;;2.66;68.34;93646.59;5047016;28;20096;-69
2020/12/04 06:30:11;;;;;;;14.65;7.07;;;;;;;2.73;68.21;93652.38;5049405;28;20032;-70
2020/12/04 06:32:49;;;;;;;15.98;7.20;;;;;;;2.79;68.01;93661.81;5055765;28;20028;-67
2020/12/04 06:35:40;;;;;;;15.30;6.70;;;;;;;2.86;67.53;93656.25;5070576;28;20025;-67
2020/12/04 06:38:05;;;;;;;11.32;5.88;;;;;;;2.86;67.38;93662.31;5070050;28;20024;-67
2020/12/04 06:40:31;;;;;;;11.65;6.22;;;;;;;2.83;66.83;93673.41;5070585;28;20028;-67
2020/12/04 06:42:59;;;;;;;13.18;6.00;;;;;;;2.85;66.47;93681.00;5069295;28;20078;-71
2020/12/04 06:45:47;;;;;;;15.23;7.00;;;;;;;2.81;67.12;93684.19;5070993;28;20024;-68
2020/12/04 06:48:17;;;;;;;11.65;5.68;;;;;;;2.80;65.76;93690.50;5069309;28;20039;-68
2020/12/04 06:50:46;;;;;;;12.38;6.35;;;;;;;2.75;66.12;93690.53;5070181;28;20035;-69
2020/12/04 06:53:12;;;;;;;14.98;6.45;;;;;;;2.74;66.19;93688.16;5067416;28;20129;-67
2020/12/04 06:55:39;;;;;;;12.65;6.25;;;;;;;2.74;66.93;93690.78;5063208;28;20163;-69
2020/12/04 06:58:05;;;;;;;11.25;5.70;;;;;;;2.65;66.85;93687.13;5068760;28;20082;-69
2020/12/04 07:00:31;;;;;;;11.32;5.90;;;;;;;2.50;67.34;93701.88;5068875;28;20435;-69
2020/12/04 07:02:59;;;;;;;17.52;6.55;;;;;;;2.46;67.61;93713.97;5070002;28;20455;-70
2020/12/04 07:05:26;;;;;;;12.02;5.95;;;;;;;2.54;68.10;93708.19;5069049;28;20021;-69
2020/12/04 07:08:05;;;;;;;23.13;6.20;;;;;;;2.58;68.27;93703.19;5068647;28;20032;-69
2020/12/04 07:10:31;;;;;;;12.40;6.60;;;;;;;2.67;67.58;93706.84;5069956;28;20132;-69
2020/12/04 07:13:01;;;;;;;17.05;7.30;;;;;;;2.79;67.42;93704.72;5068586;28;20032;-70
2020/12/04 07:15:27;;;;;;;18.85;9.45;;;;;;;2.94;67.39;93706.50;5068336;28;20115;-70
2020/12/04 07:17:53;;;;;;;14.88;7.13;;;;;;;3.08;67.05;93708.56;5070112;28;20107;-70
2020/12/04 07:20:19;;;;;;;27.17;10.88;;;;;;;3.20;67.10;93711.69;5069258;28;20052;-70
2020/12/04 07:22:45;;;;;;;32.88;13.30;;;;;;;3.31;66.35;93699.25;5060659;28;20029;-70
2020/12/04 07:25:10;;;;;;;20.42;9.73;;;;;;;3.44;65.86;93709.22;5049399;28;20031;-70
2020/12/04 07:27:37;;;;;;;19.10;9.00;;;;;;;3.59;65.39;93695.16;5049361;28;20025;-70
2020/12/04 07:30:13;;;;;;;21.05;10.07;;;;;;;3.72;64.66;93697.16;5049386;28;20031;-70
2020/12/04 07:32:47;;;;;;;20.48;9.65;;;;;;;3.84;64.96;93688.13;5049294;28;20074;-66
2020/12/04 07:35:12;;;;;;;19.08;9.52;;;;;;;3.95;64.94;93687.00;5049209;28;20052;-66
2020/12/04 07:37:38;;;;;;;29.13;11.95;;;;;;;4.07;65.03;93679.53;5049108;28;20531;-66
2020/12/04 07:40:03;;;;;;;21.05;9.32;;;;;;;4.16;65.42;93688.41;5049374;28;20021;-66
2020/12/04 07:42:31;;;;;;;21.55;8.95;;;;;;;4.30;64.90;93685.16;5049347;28;20020;-66
2020/12/04 07:44:57;;;;;;;25.35;10.70;;;;;;;4.38;64.27;93689.81;5049199;28;20024;-66
2020/12/04 07:47:22;;;;;;;23.98;9.88;;;;;;;4.46;64.27;93694.50;5049151;28;20029;-66
2020/12/04 07:49:51;;;;;;;18.13;9.43;;;;;;;4.53;64.30;93678.31;5048983;28;20066;-66
2020/12/04 07:52:24;;;;;;;17.33;8.35;;;;;;;4.62;63.94;93688.00;5070448;28;20144;-65
2020/12/04 07:54:57;;;;;;;17.88;9.10;;;;;;;4.70;63.44;93691.88;5072966;28;20029;-67
2020/12/04 07:57:27;;;;;;;21.85;11.27;;;;;;;4.76;63.72;93689.97;5073225;28;20081;-70
2020/12/04 07:59:56;;;;;;;20.10;10.18;;;;;;;4.85;63.70;93688.28;5072088;28;20468;-69
2020/12/04 08:02:24;;;;;;;18.75;9.25;;;;;;;4.91;63.68;93696.94;5073469;28;20032;-70
2020/12/04 08:04:50;;;;;;;16.30;9.00;;;;;;;4.94;63.68;93702.44;5073336;28;20027;-70
2020/12/04 08:07:16;;;;;;;23.35;10.23;;;;;;;4.98;63.69;93706.09;5073778;28;20024;-70
2020/12/04 08:09:43;;;;;;;19.30;8.52;;;;;;;4.99;63.77;93707.69;5073158;28;20511;-69
2020/12/04 08:12:21;;;;;;;17.13;9.00;;;;;;;5.02;63.44;93701.81;5073482;28;20059;-73
2020/12/04 08:14:49;;;;;;;19.52;10.02;;;;;;;5.05;63.59;93697.03;5073406;28;20056;-73
2020/12/04 08:17:18;;;;;;;19.20;9.43;;;;;;;5.04;63.51;93696.25;5070476;28;20024;-73
2020/12/04 08:19:44;;;;;;;18.10;9.13;;;;;;;5.09;63.47;93698.03;5072515;28;20020;-72
2020/12/04 08:22:09;;;;;;;25.35;9.10;;;;;;;5.07;63.43;93701.00;5072938;28;20506;-72
2020/12/04 08:24:40;;;;;;;14.93;7.97;;;;;;;5.03;63.74;93699.97;5067546;28;20504;-72
2020/12/04 08:27:10;;;;;;;17.63;9.23;;;;;;;5.05;63.64;93687.28;5051685;28;20133;-72
2020/12/04 08:29:56;;;;;;;18.02;9.98;;;;;;;5.07;63.63;93690.44;5051532;28;20491;-72
2020/12/04 08:32:22;;;;;;;17.20;9.00;;;;;;;5.12;63.46;93681.66;5053559;28;20037;-73
2020/12/04 08:34:49;;;;;;;19.08;10.02;;;;;;;5.15;63.49;93670.50;5067456;28;20408;-73
2020/12/04 08:37:17;;;;;;;20.08;10.25;;;;;;;5.16;63.18;93672.09;5066806;28;20032;-73
2020/12/04 08:39:50;;;;;;;20.42;10.45;;;;;;;5.15;63.32;93665.22;5069344;28;20039;-73
2020/12/04 08:42:33;;;;;;;19.45;9.45;;;;;;;5.17;63.68;93655.16;5071286;28;20028;-72
2020/12/04 08:44:59;;;;;;;21.27;10.35;;;;;;;5.20;63.73;93649.31;5072444;28;20024;-74
2020/12/04 08:47:42;;;;;;;19.58;10.48;;;;;;;5.20;63.54;93650.09;5052419;28;20021;-75
2020/12/04 08:50:19;;;;;;;25.17;11.32;;;;;;;5.21;63.48;93653.50;5070377;28;20052;-74
2020/12/04 08:52:54;;;;;;;18.92;10.55;;;;;;;5.13;63.81;93665.53;5058149;28;20099;-74
2020/12/04 08:55:26;;;;;;;22.58;10.82;;;;;;;5.09;64.14;93656.59;5053336;28;20400;-75
2020/12/04 08:57:56;;;;;;;23.98;11.65;;;;;;;5.17;64.30;93652.50;5052500;28;20036;-74
2020/12/04 09:00:32;;;;;;;22.08;11.10;;;;;;;5.28;63.64;93647.91;5069879;28;20028;-75
2020/12/04 09:02:59;;;;;;;22.42;10.88;;;;;;;5.23;63.78;93662.75;5071777;28;20023;-74
2020/12/04 09:05:24;;;;;;;23.83;10.70;;;;;;;5.22;63.91;93657.75;5072600;28;20031;-74
2020/12/04 09:07:50;;;;;;;25.17;11.45;;;;;;;5.05;63.95;93671.44;5072211;28;20032;-72
2020/12/04 09:10:17;;;;;;;23.33;11.95;;;;;;;4.72;65.43;93665.19;5070841;28;20521;-72
2020/12/04 09:12:45;;;;;;;25.48;11.05;;;;;;;4.64;65.84;93666.59;5062175;28;20028;-72
2020/12/04 09:15:16;;;;;;;24.48;12.43;;;;;;;4.62;65.99;93642.34;5071981;28;20506;-72
2020/12/04 09:17:42;;;;;;;25.73;12.70;;;;;;;4.61;66.19;93651.31;5070606;28;20043;-73
2020/12/04 09:20:09;;;;;;;24.92;11.30;;;;;;;4.67;66.16;93659.97;5072039;28;20403;-73
2020/12/04 09:22:36;;;;;;;23.58;11.80;;;;;;;4.73;65.88;93648.28;5072458;28;20032;-73
2020/12/04 09:25:07;;;;;;;22.60;11.65;;;;;;;4.80;65.88;93644.25;5070678;28;20012;-72
2020/12/04 09:27:33;;;;;;;26.08;12.25;;;;;;;4.81;65.78;93634.47;5070537;28;20029;-72
2020/12/04 09:29:59;;;;;;;27.23;12.52;;;;;;;4.87;65.47;93632.56;5072007;28;20028;-73
2020/12/04 09:32:25;;;;;;;27.98;13.30;;;;;;;4.97;65.15;93629.78;5072057;28;20130;-72
2020/12/04 09:34:51;;;;;;;21.65;12.27;;;;;;;5.01;65.09;93628.94;5064639;28;20115;-72
2020/12/04 09:37:25;;;;;;;24.90;12.48;;;;;;;5.02;65.16;93629.72;5051717;28;20037;-72
2020/12/04 09:39:56;;;;;;;17.63;10.45;;;;;;;5.07;65.26;93623.56;5051550;28;20060;-72
2020/12/04 09:42:24;;;;;;;24.73;12.93;;;;;;;5.14;65.34;93624.81;5070096;28;20036;-73
2020/12/04 09:44:51;;;;;;;23.27;11.93;;;;;;;5.21;64.96;93621.81;5062252;28;20036;-73
2020/12/04 09:47:17;;;;;;;29.95;13.82;;;;;;;5.23;64.72;93620.47;5051340;28;20070;-73
2020/12/04 09:49:46;;;;;;;32.58;14.05;;;;;;;5.26;64.62;93615.69;5068225;28;20032;-72
2020/12/04 09:52:13;;;;;;;27.75;13.02;;;;;;;5.24;64.58;93618.59;5061626;28;20045;-74
2020/12/04 09:54:40;;;;;;;26.52;13.40;;;;;;;5.15;65.08;93622.94;5050008;28;20033;-74
2020/12/04 09:57:08;;;;;;;29.75;13.43;;;;;;;5.15;65.14;93629.03;5065722;28;20020;-72
2020/12/04 09:59:34;;;;;;;26.02;13.48;;;;;;;5.12;65.23;93623.53;5068456;28;20039;-72
2020/12/04 10:02:00;;;;;;;28.17;13.15;;;;;;;5.13;65.30;93631.19;5050421;28;20021;-71
2020/12/04 10:04:25;;;;;;;27.20;13.63;;;;;;;5.10;65.18;93629.09;5054148;28;20394;-71
2020/12/04 10:06:52;;;;;;;25.45;12.60;;;;;;;4.92;65.95;93637.75;5049826;28;20090;-73
2020/12/04 10:09:19;;;;;;;30.30;14.95;;;;;;;4.87;66.24;93643.91;5061537;28;20031;-71
2020/12/04 10:11:44;;;;;;;31.88;15.75;;;;;;;4.75;66.52;93630.31;5059811;28;20028;-71
2020/12/04 10:14:10;;;;;;;31.02;15.65;;;;;;;4.70;67.04;93638.28;5054867;28;20403;-73
2020/12/04 10:16:36;;;;;;;35.33;15.50;;;;;;;4.72;66.83;93636.13;5070759;28;20039;-72
2020/12/04 10:19:02;;;;;;;36.15;15.65;;;;;;;4.70;67.56;93627.72;5069416;28;20035;-73
2020/12/04 10:21:35;;;;;;;27.70;13.95;;;;;;;4.73;67.07;93635.09;5070935;28;20099;-73
2020/12/04 10:24:02;;;;;;;53.60;20.10;;;;;;;4.87;66.34;93620.13;5070959;28;20028;-72
2020/12/04 10:26:27;;;;;;;30.33;14.25;;;;;;;4.96;66.16;93626.34;5069501;28;20027;-72
2020/12/04 10:28:53;;;;;;;29.90;13.52;;;;;;;4.97;66.39;93617.38;5070655;28;20407;-73
2020/12/04 10:31:18;;;;;;;32.83;14.77;;;;;;;4.93;66.23;93605.78;5058252;28;20029;-73
2020/12/04 10:33:43;;;;;;;28.52;14.07;;;;;;;4.77;66.68;93612.34;5067814;28;20032;-72
2020/12/04 10:36:09;;;;;;;33.00;14.90;;;;;;;4.73;66.73;93621.88;5070482;28;20099;-72
2020/12/04 10:38:34;;;;;;;40.22;17.65;;;;;;;4.78;66.59;93603.34;5069405;28;20020;-73
2020/12/04 10:41:00;;;;;;;26.20;13.35;;;;;;;4.86;66.65;93599.28;5070261;28;20503;-72
2020/12/04 10:43:26;;;;;;;23.85;11.98;;;;;;;4.96;66.56;93602.56;5057174;28;20463;-73
2020/12/04 10:45:52;;;;;;;30.10;15.73;;;;;;;5.00;66.16;93594.88;5050697;28;20104;-72
2020/12/04 10:48:18;;;;;;;34.65;17.58;;;;;;;4.78;66.83;93598.84;5050595;28;20444;-72
2020/12/04 10:50:45;;;;;;;33.55;17.08;;;;;;;4.48;67.71;93594.72;5068581;28;20031;-72
2020/12/04 10:53:11;;;;;;;37.08;16.92;;;;;;;4.43;68.07;93600.03;5069720;28;20024;-72
2020/12/04 10:55:37;;;;;;;35.97;17.30;;;;;;;4.56;67.55;93599.38;5068402;28;20396;-72
2020/12/04 10:58:03;;;;;;;31.63;15.85;;;;;;;4.67;67.33;93600.03;5069994;28;20016;-72
2020/12/04 11:00:28;;;;;;;35.05;16.25;;;;;;;4.80;67.30;93588.78;5070196;28;20032;-72
2020/12/04 11:03:01;;;;;;;38.95;16.98;;;;;;;4.98;66.60;93604.94;5066998;28;20028;-73
2020/12/04 11:07:52;;;;;;;19.67;9.70;;;;;;;5.34;65.16;93572.75;5066460;28;20101;-71
2020/12/04 11:10:19;;;;;;;17.17;9.48;;;;;;;5.49;64.74;93569.09;5055212;28;20029;-71
2020/12/04 11:12:44;;;;;;;15.10;8.55;;;;;;;5.54;64.36;93550.53;5048864;28;20090;-71
2020/12/04 11:15:10;;;;;;;16.33;8.43;;;;;;;5.62;63.98;93544.56;5049806;28;20037;-72
2020/12/04 11:17:38;;;;;;;19.45;10.00;;;;;;;5.65;63.95;93546.63;5057031;28;20085;-72
2020/12/04 11:20:03;;;;;;;19.73;8.95;;;;;;;5.65;63.76;93545.84;5053891;28;20032;-72
2020/12/04 11:22:32;;;;;;;16.40;8.60;;;;;;;5.62;63.94;93541.94;5050134;28;20094;-73
2020/12/04 11:24:58;;;;;;;21.60;9.25;;;;;;;5.66;63.84;93540.28;5068465;28;20024;-71
2020/12/04 11:27:24;;;;;;;21.90;8.77;;;;;;;5.66;63.88;93535.00;5070103;28;20541;-70
2020/12/04 11:29:49;;;;;;;21.33;9.73;;;;;;;5.65;63.94;93530.00;5063343;28;20071;-71
2020/12/04 11:32:15;;;;;;;20.45;10.60;;;;;;;5.63;64.21;93530.28;5048408;28;20502;-71
2020/12/04 11:34:40;;;;;;;17.98;9.80;;;;;;;5.60;64.17;93544.09;5048517;28;20033;-71